Time;durP1;ratioP1;P1;durP2;ratioP2;P2;SDS_P1;SDS_P2;PMS_P1;PMS_P2;Temp;Humidity;BMP_temperature;BMP_pressure;BME280_temperature;BME280_humidity;BME280_pressure;Samples;Min_cycle;Max_cycle;Signal;HPM_P1;HPM_P2
2024/01/19 00:01:22;;;;;;;0.80;0.80;;;-3.90;99.90;;;;;;5062761;28;20062;-70
2024/01/19 00:03:48;;;;;;;3.85;1.52;;;-3.90;99.90;;;;;;5077463;28;20032;-70
2024/01/19 00:06:15;;;;;;;3.15;2.15;;;-3.90;99.90;;;;;;5072024;28;20090;-70
2024/01/19 00:08:40;;;;;;;0.40;0.40;;;-4.00;99.90;;;;;;5074115;28;20032;-71
2024/01/19 00:11:12;;;;;;;1.35;1.25;;;-3.90;99.90;;;;;;5074961;28;20032;-70
2024/01/19 00:13:37;;;;;;;4.47;2.63;;;-3.90;99.90;;;;;;5068316;28;20496;-70
2024/01/19 00:16:03;;;;;;;0.60;0.60;;;-4.00;99.90;;;;;;5067895;28;20031;-71
2024/01/19 00:18:29;;;;;;;0.45;0.45;;;-4.00;99.90;;;;;;5061766;28;20035;-70
2024/01/19 00:20:55;;;;;;;0.93;0.93;;;-4.00;99.90;;;;;;5077045;28;20552;-70
2024/01/19 00:23:20;;;;;;;0.30;0.30;;;-4.00;99.90;;;;;;5058070;28;20032;-69
2024/01/19 00:25:46;;;;;;;0.30;0.30;;;-3.90;99.90;;;;;;5073078;28;20041;-69
2024/01/19 00:28:11;;;;;;;0.47;0.47;;;-3.90;99.90;;;;;;5064141;28;20630;-71
2024/01/19 00:30:37;;;;;;;0.70;0.70;;;-4.00;99.90;;;;;;5069503;28;20046;-71
2024/01/19 00:33:03;;;;;;;2.22;1.75;;;-4.00;99.90;;;;;;5055035;28;20066;-70
2024/01/19 00:35:29;;;;;;;0.32;0.32;;;-4.00;99.90;;;;;;5072997;28;20133;-70
2024/01/19 00:37:54;;;;;;;0.45;0.45;;;-4.00;99.90;;;;;;5072209;28;20044;-70
2024/01/19 00:40:20;;;;;;;0.40;0.40;;;-4.10;99.90;;;;;;5077327;28;20496;-70
2024/01/19 00:42:45;;;;;;;5.20;1.40;;;-4.00;99.90;;;;;;5062992;28;20071;-69
2024/01/19 00:45:11;;;;;;;26.88;0.70;;;-4.00;99.90;;;;;;5072593;28;20123;-71
2024/01/19 00:47:37;;;;;;;1.88;1.77;;;-3.90;99.90;;;;;;5052599;28;20169;-70
2024/01/19 00:50:05;;;;;;;0.38;0.38;;;-3.90;99.90;;;;;;5072544;28;20546;-69
2024/01/19 00:52:31;;;;;;;0.40;0.40;;;-3.90;99.90;;;;;;5074934;28;20051;-69
2024/01/19 00:54:57;;;;;;;0.63;0.63;;;-3.90;99.90;;;;;;5063097;28;20056;-69
2024/01/19 00:57:22;;;;;;;0.30;0.30;;;-3.90;99.90;;;;;;5068385;28;20081;-69
2024/01/19 00:59:48;;;;;;;0.35;0.35;;;-3.80;99.90;;;;;;5062323;28;20051;-69
2024/01/19 01:02:14;;;;;;;1.15;0.82;;;-3.80;99.90;;;;;;5068908;28;20039;-70
2024/01/19 01:04:39;;;;;;;2.15;1.55;;;-3.80;99.90;;;;;;5065322;28;20040;-69
2024/01/19 01:07:05;;;;;;;1.85;1.38;;;-3.80;99.90;;;;;;5079328;28;20063;-70
2024/01/19 01:09:31;;;;;;;1.85;0.75;;;-3.80;99.90;;;;;;5063665;28;20866;-70
2024/01/19 01:11:56;;;;;;;0.28;0.20;;;-3.90;99.90;;;;;;5077361;28;20036;-70
2024/01/19 01:14:23;;;;;;;1.90;1.15;;;-3.90;99.90;;;;;;5065936;28;20036;-68
2024/01/19 01:16:49;;;;;;;0.25;0.25;;;-3.90;99.90;;;;;;5072447;28;20032;-71
2024/01/19 01:19:14;;;;;;;0.17;0.17;;;-3.90;99.90;;;;;;5063930;28;20027;-70
2024/01/19 01:21:40;;;;;;;0.77;0.77;;;-3.80;99.90;;;;;;5076939;28;20040;-71
2024/01/19 01:24:05;;;;;;;0.35;0.35;;;-3.90;99.90;;;;;;5062531;28;20029;-71
2024/01/19 01:26:31;;;;;;;0.75;0.75;;;-3.90;99.90;;;;;;5075471;28;20028;-69
2024/01/19 01:28:57;;;;;;;0.40;0.40;;;-3.90;99.90;;;;;;5047480;28;20056;-68
2024/01/19 01:31:22;;;;;;;1.88;1.77;;;-4.00;99.90;;;;;;5068916;28;20047;-69
2024/01/19 01:33:48;;;;;;;0.10;0.10;;;-4.00;99.90;;;;;;5076167;28;20437;-70
2024/01/19 01:36:14;;;;;;;0.43;0.43;;;-4.00;99.90;;;;;;5062017;28;20027;-69
2024/01/19 01:38:40;;;;;;;2.22;1.25;;;-4.10;99.90;;;;;;5076961;28;20035;-69
2024/01/19 01:41:05;;;;;;;1.00;0.98;;;-4.10;99.90;;;;;;5064778;28;20036;-69
2024/01/19 01:43:31;;;;;;;0.77;0.77;;;-4.10;99.90;;;;;;5071161;28;20058;-70
2024/01/19 01:45:57;;;;;;;0.20;0.20;;;-4.10;99.90;;;;;;5062531;28;20119;-70
2024/01/19 01:48:24;;;;;;;0.15;0.15;;;-4.10;99.90;;;;;;5078204;28;20044;-70
2024/01/19 01:50:51;;;;;;;0.20;0.20;;;-4.00;99.90;;;;;;5051423;28;20032;-70
2024/01/19 01:53:18;;;;;;;2.15;1.95;;;-4.00;99.90;;;;;;5073305;28;20042;-70
2024/01/19 01:55:45;;;;;;;0.43;0.15;;;-3.90;99.90;;;;;;5060962;28;20089;-71
2024/01/19 01:58:13;;;;;;;0.50;0.50;;;-3.90;99.90;;;;;;5074552;28;20035;-69
2024/01/19 02:00:39;;;;;;;0.20;0.20;;;-3.90;99.90;;;;;;5060808;28;20029;-70
2024/01/19 02:03:06;;;;;;;0.32;0.32;;;-3.80;99.90;;;;;;5065216;28;20412;-70
2024/01/19 02:05:32;;;;;;;0.45;0.45;;;-3.80;99.90;;;;;;5063963;28;20036;-70
2024/01/19 02:07:58;;;;;;;0.75;0.75;;;-3.80;99.90;;;;;;5075296;28;20035;-71
2024/01/19 02:10:24;;;;;;;0.85;0.63;;;-4.00;99.90;;;;;;5060836;28;20399;-71
2024/01/19 02:12:50;;;;;;;0.45;0.45;;;-3.90;99.90;;;;;;5076118;28;20035;-70
2024/01/19 02:15:18;;;;;;;3.42;0.90;;;-3.80;99.90;;;;;;5070373;28;20042;-71
2024/01/19 02:17:44;;;;;;;0.55;0.55;;;-3.80;99.90;;;;;;5065219;28;20060;-69
2024/01/19 02:20:11;;;;;;;0.10;0.10;;;-3.80;99.90;;;;;;5081909;28;20149;-70
2024/01/19 02:22:39;;;;;;;3.42;0.68;;;-3.80;99.90;;;;;;5058049;28;20020;-69
2024/01/19 02:25:05;;;;;;;1.55;0.73;;;-3.80;99.90;;;;;;5075248;28;20024;-70
2024/01/19 02:27:32;;;;;;;1.20;1.13;;;-3.80;99.90;;;;;;5064831;28;20751;-70
2024/01/19 02:29:58;;;;;;;0.35;0.35;;;-3.80;99.90;;;;;;5075016;28;20051;-71
2024/01/19 02:32:24;;;;;;;0.20;0.20;;;-3.90;99.90;;;;;;5062391;28;20041;-70
2024/01/19 02:34:49;;;;;;;0.32;0.32;;;-3.90;99.90;;;;;;5076289;28;20067;-69
2024/01/19 02:37:15;;;;;;;0.82;0.52;;;-3.90;99.90;;;;;;5064017;28;20036;-71
2024/01/19 02:39:41;;;;;;;0.32;0.28;;;-3.90;99.90;;;;;;5081442;28;20032;-70
2024/01/19 02:42:07;;;;;;;0.22;0.22;;;-3.90;99.90;;;;;;5065487;28;20154;-71
2024/01/19 02:44:33;;;;;;;0.30;0.30;;;-4.00;99.90;;;;;;5072954;28;20059;-69
2024/01/19 02:46:58;;;;;;;0.73;0.73;;;-4.00;99.90;;;;;;5066550;28;20139;-72
2024/01/19 02:49:24;;;;;;;0.30;0.30;;;-4.00;99.90;;;;;;5074953;28;20043;-70
2024/01/19 02:51:50;;;;;;;0.70;0.65;;;-4.00;99.90;;;;;;5064225;28;20024;-70
2024/01/19 02:54:16;;;;;;;0.32;0.32;;;-4.00;99.90;;;;;;5078946;28;20062;-70
2024/01/19 02:56:41;;;;;;;0.73;0.73;;;-4.00;99.90;;;;;;5076309;28;20036;-70
2024/01/19 02:59:08;;;;;;;0.47;0.32;;;-4.00;99.90;;;;;;5073321;28;20537;-70
2024/01/19 03:01:33;;;;;;;0.57;0.57;;;-4.00;99.90;;;;;;5079186;28;20032;-69
2024/01/19 03:03:59;;;;;;;0.85;0.50;;;-4.00;99.90;;;;;;5063110;28;20527;-70
2024/01/19 03:06:25;;;;;;;0.28;0.28;;;-4.00;99.90;;;;;;5082170;28;20508;-70
2024/01/19 03:08:50;;;;;;;0.43;0.43;;;-4.00;99.90;;;;;;5069240;28;20034;-69
2024/01/19 03:11:16;;;;;;;0.20;0.20;;;-4.00;99.90;;;;;;5080170;28;20043;-69
2024/01/19 03:13:42;;;;;;;0.10;0.10;;;-4.10;99.90;;;;;;5063962;28;20032;-71
2024/01/19 03:16:08;;;;;;;0.00;0.00;;;-4.10;99.90;;;;;;5079635;28;20033;-70
2024/01/19 03:18:34;;;;;;;0.40;0.40;;;-4.00;99.90;;;;;;5068474;28;20099;-70
2024/01/19 03:20:59;;;;;;;0.17;0.17;;;-4.10;99.90;;;;;;5085113;28;20031;-69
2024/01/19 03:23:25;;;;;;;0.00;0.00;;;-4.20;99.90;;;;;;5067023;28;20039;-70
2024/01/19 03:25:51;;;;;;;0.15;0.15;;;-4.10;99.90;;;;;;5078531;28;20043;-69
2024/01/19 03:28:17;;;;;;;0.70;0.70;;;-4.10;99.90;;;;;;5069916;28;20120;-70
2024/01/19 03:30:42;;;;;;;0.43;0.40;;;-4.10;99.90;;;;;;5079011;28;20036;-70
2024/01/19 03:33:08;;;;;;;0.45;0.45;;;-4.10;99.90;;;;;;5063379;28;20040;-69
2024/01/19 03:35:34;;;;;;;0.15;0.15;;;-4.10;99.90;;;;;;5082093;28;20031;-70
2024/01/19 03:38:00;;;;;;;0.47;0.40;;;-4.20;99.90;;;;;;5075192;28;20036;-69
2024/01/19 03:40:25;;;;;;;0.73;0.73;;;-4.20;99.90;;;;;;5076999;28;20022;-69
2024/01/19 03:42:51;;;;;;;0.75;0.75;;;-4.20;99.90;;;;;;5089431;28;20400;-69
2024/01/19 03:45:17;;;;;;;0.10;0.10;;;-4.20;99.90;;;;;;5073562;28;20062;-69
2024/01/19 03:47:44;;;;;;;0.40;0.38;;;-4.20;99.90;;;;;;5092160;28;20036;-70
2024/01/19 03:50:10;;;;;;;0.00;0.00;;;-4.20;99.90;;;;;;5064596;28;20028;-71
2024/01/19 03:52:37;;;;;;;0.10;0.10;;;-4.20;99.90;;;;;;5079840;28;20040;-69
2024/01/19 03:55:05;;;;;;;0.68;0.68;;;-4.10;99.90;;;;;;5049659;28;20127;-69
2024/01/19 03:57:30;;;;;;;0.80;0.68;;;-4.10;99.90;;;;;;5053528;28;20086;-69
2024/01/19 03:59:56;;;;;;;0.50;0.50;;;-4.00;99.90;;;;;;5042842;28;20516;-69
2024/01/19 04:02:22;;;;;;;0.47;0.20;;;-3.90;99.90;;;;;;5055684;28;20071;-70
2024/01/19 04:04:48;;;;;;;0.40;0.10;;;-3.80;99.90;;;;;;5041976;28;20044;-69
2024/01/19 04:07:14;;;;;;;0.30;0.30;;;-3.80;99.90;;;;;;5059333;28;20093;-70
2024/01/19 04:09:40;;;;;;;0.35;0.35;;;-3.70;99.90;;;;;;5046324;28;20029;-69
2024/01/19 04:12:15;;;;;;;0.35;0.35;;;-3.70;99.90;;;;;;5060121;28;20036;-70
2024/01/19 04:14:42;;;;;;;0.60;0.60;;;-3.60;99.90;;;;;;5049796;28;21128;-69
2024/01/19 04:17:08;;;;;;;1.02;0.75;;;-3.70;99.90;;;;;;5054945;28;20025;-70
2024/01/19 04:19:34;;;;;;;0.77;0.40;;;-3.80;99.90;;;;;;5051723;28;20500;-69
2024/01/19 04:22:00;;;;;;;5.47;0.60;;;-3.70;99.90;;;;;;5058560;28;20532;-70
2024/01/19 04:24:26;;;;;;;0.98;0.20;;;-3.80;99.90;;;;;;5057027;28;20043;-70
2024/01/19 04:26:51;;;;;;;0.38;0.38;;;-3.80;99.90;;;;;;5048709;28;20024;-69
2024/01/19 04:29:17;;;;;;;0.08;0.08;;;-3.80;99.90;;;;;;5059229;28;21114;-70
2024/01/19 04:31:42;;;;;;;0.43;0.43;;;-3.80;99.90;;;;;;5038260;28;20033;-71
2024/01/19 04:34:08;;;;;;;0.93;0.77;;;-3.80;99.90;;;;;;5058211;28;20086;-73
2024/01/19 04:36:34;;;;;;;1.10;0.40;;;-3.90;99.90;;;;;;5053385;28;20064;-70
2024/01/19 04:39:00;;;;;;;0.30;0.30;;;-3.90;99.90;;;;;;5058245;28;20661;-70
2024/01/19 04:41:25;;;;;;;0.20;0.20;;;-4.00;99.90;;;;;;5048524;28;20382;-70
2024/01/19 04:43:51;;;;;;;0.10;0.10;;;-4.00;99.90;;;;;;5053082;28;20935;-70
2024/01/19 04:46:17;;;;;;;0.57;0.55;;;-4.00;99.90;;;;;;5044108;28;20036;-70
2024/01/19 04:48:42;;;;;;;1.45;0.75;;;-4.10;99.90;;;;;;5060286;28;20040;-69
2024/01/19 04:51:08;;;;;;;1.60;0.95;;;-4.20;99.90;;;;;;5045765;28;20034;-70
2024/01/19 04:53:33;;;;;;;0.30;0.30;;;-4.20;99.90;;;;;;5058242;28;20029;-69
2024/01/19 04:55:59;;;;;;;1.52;1.50;;;-4.30;99.90;;;;;;5064280;28;20060;-69
2024/01/19 04:58:25;;;;;;;0.20;0.20;;;-4.40;99.90;;;;;;5074842;28;20028;-70
2024/01/19 05:00:50;;;;;;;0.73;0.68;;;-4.40;99.90;;;;;;5072621;28;20404;-70
2024/01/19 05:03:16;;;;;;;0.22;0.22;;;-4.40;99.90;;;;;;5049122;28;20056;-70
2024/01/19 05:05:42;;;;;;;0.43;0.43;;;-4.40;99.90;;;;;;5068224;28;20028;-70
2024/01/19 05:08:07;;;;;;;0.50;0.50;;;-4.40;99.90;;;;;;5056163;28;20040;-70
2024/01/19 05:10:34;;;;;;;2.72;0.70;;;-4.40;99.90;;;;;;5064300;28;20147;-71
2024/01/19 05:12:59;;;;;;;0.15;0.08;;;-4.50;99.90;;;;;;5064982;28;20031;-70
2024/01/19 05:15:25;;;;;;;1.33;1.05;;;-4.50;99.90;;;;;;5072034;28;20392;-70
2024/01/19 05:17:51;;;;;;;0.08;0.08;;;-4.50;99.90;;;;;;5058699;28;20040;-69
2024/01/19 05:20:18;;;;;;;1.15;1.15;;;-4.40;99.90;;;;;;5078478;28;20032;-70
2024/01/19 05:22:44;;;;;;;0.32;0.32;;;-4.40;99.90;;;;;;5067573;28;20107;-70
2024/01/19 05:25:09;;;;;;;0.10;0.10;;;-4.40;99.90;;;;;;5072775;28;20161;-69
2024/01/19 05:27:35;;;;;;;0.32;0.32;;;-4.30;99.90;;;;;;5065029;28;20069;-69
2024/01/19 05:30:01;;;;;;;0.50;0.50;;;-4.40;99.90;;;;;;5074263;28;20054;-70
2024/01/19 05:32:27;;;;;;;0.38;0.38;;;-4.40;99.90;;;;;;5057031;28;20685;-70
2024/01/19 05:34:52;;;;;;;0.60;0.45;;;-4.40;99.90;;;;;;5076296;28;20057;-69
2024/01/19 05:37:18;;;;;;;0.60;0.60;;;-4.40;99.90;;;;;;5055971;28;20338;-70
2024/01/19 05:39:44;;;;;;;0.50;0.50;;;-4.50;99.90;;;;;;5073576;28;20107;-69
2024/01/19 05:42:10;;;;;;;0.05;0.05;;;-4.50;99.90;;;;;;5062195;28;20032;-70
2024/01/19 05:44:37;;;;;;;0.10;0.10;;;-4.50;99.90;;;;;;5070681;28;20090;-69
2024/01/19 05:47:03;;;;;;;0.10;0.10;;;-4.50;99.90;;;;;;5076901;28;20090;-69
2024/01/19 05:49:29;;;;;;;0.95;0.95;;;-4.60;99.90;;;;;;5065923;28;20064;-70
2024/01/19 05:51:54;;;;;;;0.28;0.28;;;-4.60;99.90;;;;;;5071283;28;20533;-70
2024/01/19 05:54:20;;;;;;;0.77;0.77;;;-4.60;99.90;;;;;;5061491;28;20048;-70
2024/01/19 05:56:45;;;;;;;0.10;0.10;;;-4.60;99.90;;;;;;5072513;28;20035;-69
2024/01/19 05:59:11;;;;;;;0.45;0.45;;;-4.60;99.90;;;;;;5057375;28;20189;-70
2024/01/19 06:01:37;;;;;;;0.30;0.30;;;-4.40;99.90;;;;;;5072504;28;20048;-70
2024/01/19 06:04:02;;;;;;;0.45;0.45;;;-4.30;99.90;;;;;;5063350;28;20142;-70
2024/01/19 06:06:28;;;;;;;0.68;0.68;;;-4.30;99.90;;;;;;5072292;28;20039;-70
2024/01/19 06:08:53;;;;;;;4.28;0.65;;;-4.20;99.90;;;;;;5061779;28;20038;-70
2024/01/19 06:11:19;;;;;;;0.45;0.45;;;-4.20;99.90;;;;;;5071315;28;20487;-70
2024/01/19 06:13:46;;;;;;;0.15;0.15;;;-4.20;99.90;;;;;;5069647;28;20449;-69
2024/01/19 06:16:12;;;;;;;0.38;0.38;;;-4.20;99.90;;;;;;5085962;28;20032;-70
2024/01/19 06:18:38;;;;;;;2.83;1.95;;;-4.30;99.90;;;;;;5053870;28;20036;-70
2024/01/19 06:21:09;;;;;;;0.17;0.17;;;-4.30;99.90;;;;;;5074308;28;20063;-70
2024/01/19 06:23:36;;;;;;;0.73;0.73;;;-4.30;99.90;;;;;;5053257;28;20025;-69
2024/01/19 06:26:09;;;;;;;0.25;0.25;;;-4.40;99.90;;;;;;5066155;28;20403;-70
2024/01/19 06:28:35;;;;;;;0.90;0.90;;;-4.40;99.90;;;;;;5053490;28;20031;-70
2024/01/19 06:31:03;;;;;;;2.50;0.63;;;-4.40;99.90;;;;;;5059979;28;20024;-70
2024/01/19 06:33:29;;;;;;;0.20;0.20;;;-4.30;99.90;;;;;;5069237;28;20039;-70
2024/01/19 06:35:56;;;;;;;0.73;0.73;;;-4.30;99.90;;;;;;5062599;28;20024;-70
2024/01/19 06:38:23;;;;;;;0.45;0.45;;;-4.20;99.90;;;;;;5067347;28;20062;-69
2024/01/19 06:40:49;;;;;;;0.30;0.30;;;-4.00;99.90;;;;;;5061440;28;20107;-70
2024/01/19 06:43:15;;;;;;;0.20;0.20;;;-3.80;99.90;;;;;;5073342;28;20480;-69
2024/01/19 06:45:41;;;;;;;0.75;0.75;;;-3.60;99.90;;;;;;5056027;28;20033;-70
2024/01/19 06:48:07;;;;;;;0.70;0.50;;;-3.60;99.90;;;;;;5073621;28;20038;-69
2024/01/19 06:50:33;;;;;;;1.50;0.77;;;-3.60;99.90;;;;;;5060757;28;20092;-69
2024/01/19 06:53:00;;;;;;;0.80;0.80;;;-3.50;99.90;;;;;;5074435;28;20082;-70
2024/01/19 06:55:27;;;;;;;0.38;0.38;;;-3.40;99.90;;;;;;5065054;28;21174;-70
2024/01/19 06:57:53;;;;;;;0.63;0.63;;;-3.40;99.90;;;;;;5073044;28;20031;-70
2024/01/19 07:00:19;;;;;;;0.10;0.10;;;-3.30;99.90;;;;;;5060444;28;20496;-68
2024/01/19 07:02:45;;;;;;;0.43;0.43;;;-3.20;99.90;;;;;;5050937;28;20039;-70
2024/01/19 07:05:11;;;;;;;0.98;0.77;;;-3.00;99.90;;;;;;5050977;28;21602;-70
2024/01/19 07:07:37;;;;;;;1.92;0.60;;;-2.90;99.90;;;;;;5073685;28;20097;-68
2024/01/19 07:10:03;;;;;;;1.25;0.45;;;-3.00;99.90;;;;;;5068392;28;20035;-69
2024/01/19 07:12:29;;;;;;;2.08;0.70;;;-3.00;99.90;;;;;;5050887;28;20033;-69
2024/01/19 07:14:55;;;;;;;0.52;0.52;;;-3.00;99.90;;;;;;5073839;28;20732;-70
2024/01/19 07:17:20;;;;;;;0.32;0.32;;;-3.00;99.90;;;;;;5058182;28;20112;-71
2024/01/19 07:19:46;;;;;;;1.55;0.35;;;-3.00;99.90;;;;;;5075594;28;20024;-71
2024/01/19 07:22:12;;;;;;;1.40;1.30;;;-3.10;99.90;;;;;;5063891;28;20030;-70
2024/01/19 07:24:38;;;;;;;0.50;0.50;;;-3.20;99.90;;;;;;5074949;28;20047;-70
2024/01/19 07:27:04;;;;;;;1.83;0.57;;;-3.20;99.90;;;;;;5066384;28;20032;-70
2024/01/19 07:29:31;;;;;;;1.27;1.17;;;-3.30;99.90;;;;;;5079514;28;20032;-69
2024/01/19 07:31:57;;;;;;;1.20;0.95;;;-3.20;99.90;;;;;;5060105;28;20040;-70
2024/01/19 07:34:23;;;;;;;1.17;1.13;;;-3.30;99.90;;;;;;5077071;28;20036;-69
2024/01/19 07:36:49;;;;;;;0.38;0.38;;;-3.20;99.90;;;;;;5063512;28;20166;-70
2024/01/19 07:39:15;;;;;;;0.28;0.28;;;-3.20;99.90;;;;;;5072007;28;20029;-70
2024/01/19 07:41:40;;;;;;;0.60;0.60;;;-3.20;99.90;;;;;;5063618;28;20032;-70
2024/01/19 07:44:06;;;;;;;1.52;0.70;;;-3.10;99.90;;;;;;5074116;28;20035;-70
2024/01/19 07:46:32;;;;;;;0.32;0.32;;;-3.10;99.90;;;;;;5060062;28;20051;-69
2024/01/19 07:48:58;;;;;;;0.32;0.22;;;-3.10;99.90;;;;;;5072419;28;20039;-70
2024/01/19 07:51:24;;;;;;;1.10;1.02;;;-3.10;99.90;;;;;;5069062;28;20041;-69
2024/01/19 07:53:50;;;;;;;0.43;0.43;;;-3.10;99.90;;;;;;5069299;28;20153;-69
2024/01/19 07:56:16;;;;;;;0.20;0.20;;;-3.00;99.90;;;;;;5073492;28;20036;-69
2024/01/19 07:58:43;;;;;;;0.08;0.08;;;-2.90;99.90;;;;;;5057292;28;20036;-69
2024/01/19 08:01:09;;;;;;;0.57;0.55;;;-2.90;99.90;;;;;;5069961;28;20093;-69
2024/01/19 08:03:35;;;;;;;0.73;0.45;;;-2.90;99.90;;;;;;5060165;28;20032;-70
2024/01/19 08:06:01;;;;;;;9.30;0.43;;;-2.90;99.90;;;;;;5069319;28;20019;-70
2024/01/19 08:08:26;;;;;;;0.70;0.60;;;-2.90;99.90;;;;;;5063248;28;20040;-69
2024/01/19 08:10:52;;;;;;;0.47;0.47;;;-2.90;99.90;;;;;;5068692;28;20064;-68
2024/01/19 08:13:18;;;;;;;1.48;1.38;;;-2.90;99.90;;;;;;5053621;28;20082;-70
2024/01/19 08:15:44;;;;;;;0.77;0.45;;;-2.90;99.90;;;;;;5067543;28;20031;-71
2024/01/19 08:18:09;;;;;;;0.63;0.63;;;-2.90;99.90;;;;;;5055065;28;20110;-71
2024/01/19 08:20:35;;;;;;;0.35;0.35;;;-3.00;99.90;;;;;;5073209;28;20112;-70
2024/01/19 08:23:02;;;;;;;0.40;0.40;;;-3.10;99.90;;;;;;5059291;28;20071;-70
2024/01/19 08:25:27;;;;;;;1.27;0.93;;;-3.30;99.90;;;;;;5056280;28;20036;-69
2024/01/19 08:27:53;;;;;;;0.55;0.55;;;-3.20;99.90;;;;;;5053956;28;20051;-70
2024/01/19 08:30:20;;;;;;;0.80;0.80;;;-3.00;99.90;;;;;;5061082;28;20037;-69
2024/01/19 08:32:45;;;;;;;0.30;0.30;;;-3.00;99.90;;;;;;5053068;28;20641;-70
2024/01/19 08:35:11;;;;;;;0.40;0.40;;;-3.00;99.90;;;;;;5051428;28;20067;-69
2024/01/19 08:37:40;;;;;;;0.52;0.52;;;-2.90;99.90;;;;;;5066502;28;20024;-69
2024/01/19 08:40:07;;;;;;;3.08;1.88;;;-2.90;99.90;;;;;;5051844;28;20115;-69
2024/01/19 08:42:33;;;;;;;0.32;0.32;;;-2.90;99.90;;;;;;5051580;28;20089;-71
2024/01/19 08:44:59;;;;;;;0.43;0.38;;;-2.80;99.90;;;;;;5056851;28;20044;-69
2024/01/19 08:47:25;;;;;;;0.45;0.40;;;-2.80;99.90;;;;;;5070431;28;20827;-71
2024/01/19 08:49:51;;;;;;;0.82;0.82;;;-2.80;99.90;;;;;;5054804;28;20028;-73
2024/01/19 08:52:17;;;;;;;0.50;0.50;;;-2.70;99.90;;;;;;5068158;28;20799;-72
2024/01/19 08:54:43;;;;;;;0.55;0.55;;;-2.70;99.90;;;;;;5066135;28;20498;-71
2024/01/19 08:57:08;;;;;;;2.30;0.93;;;-2.60;99.90;;;;;;5081763;28;20557;-73
2024/01/19 08:59:34;;;;;;;0.40;0.40;;;-2.50;99.90;;;;;;5059624;28;20476;-75
2024/01/19 09:01:59;;;;;;;0.28;0.28;;;-2.50;99.90;;;;;;5069867;28;20068;-71
2024/01/19 09:04:25;;;;;;;0.68;0.57;;;-2.40;99.90;;;;;;5052461;28;20060;-69
2024/01/19 09:06:51;;;;;;;0.98;0.30;;;-2.30;99.90;;;;;;5068110;28;20110;-72
2024/01/19 09:09:17;;;;;;;0.90;0.85;;;-2.30;99.90;;;;;;5060285;28;20036;-72
2024/01/19 09:11:43;;;;;;;1.20;1.15;;;-2.20;99.90;;;;;;5067157;28;20037;-72
2024/01/19 09:14:10;;;;;;;0.15;0.15;;;-2.10;99.90;;;;;;5062228;28;20024;-72
2024/01/19 09:16:36;;;;;;;1.15;0.95;;;-2.00;99.90;;;;;;5057595;28;20028;-72
2024/01/19 09:19:01;;;;;;;5.90;0.85;;;-2.00;99.90;;;;;;5062495;28;20047;-69
2024/01/19 09:21:27;;;;;;;0.55;0.55;;;-1.90;99.90;;;;;;5053342;28;20575;-71
2024/01/19 09:23:53;;;;;;;4.65;1.20;;;-1.80;99.90;;;;;;5068807;28;20029;-74
2024/01/19 09:26:21;;;;;;;0.40;0.40;;;-1.70;99.90;;;;;;5054760;28;20412;-72
2024/01/19 09:28:47;;;;;;;1.52;1.20;;;-1.60;99.90;;;;;;5068128;28;20031;-71
2024/01/19 09:31:13;;;;;;;1.95;1.10;;;-1.50;99.90;;;;;;5052528;28;20786;-70
2024/01/19 09:33:39;;;;;;;1.70;1.60;;;-1.40;99.90;;;;;;5065149;28;20040;-72
2024/01/19 09:36:06;;;;;;;1.55;1.48;;;-1.30;99.90;;;;;;5048116;28;20040;-71
2024/01/19 09:38:35;;;;;;;3.50;1.48;;;-1.30;99.90;;;;;;5058238;28;20043;-70
2024/01/19 09:41:17;;;;;;;2.92;2.63;;;-1.20;99.90;;;;;;5051399;28;20035;-71
2024/01/19 09:43:45;;;;;;;0.60;0.60;;;-1.00;99.90;;;;;;5063982;28;20041;-71
2024/01/19 09:46:19;;;;;;;1.27;1.17;;;-0.90;99.90;;;;;;5046641;28;20039;-73
2024/01/19 09:48:59;;;;;;;2.25;1.95;;;-0.80;99.90;;;;;;5063508;28;20047;-74
2024/01/19 09:51:36;;;;;;;6.30;0.70;;;-0.60;99.90;;;;;;5057094;28;20032;-75
2024/01/19 09:54:06;;;;;;;0.88;0.88;;;-0.50;99.90;;;;;;5059205;28;20562;-73
2024/01/19 09:56:32;;;;;;;1.60;1.40;;;-0.30;99.90;;;;;;5027944;28;20113;-76
2024/01/19 09:59:00;;;;;;;3.15;1.35;;;-0.20;99.90;;;;;;5017501;28;20060;-76
2024/01/19 10:01:26;;;;;;;1.67;1.38;;;0.00;99.90;;;;;;5016713;28;20495;-71
2024/01/19 10:03:58;;;;;;;5.25;2.38;;;0.20;99.90;;;;;;5035964;28;20028;-73
2024/01/19 10:06:25;;;;;;;1.15;1.05;;;0.30;99.90;;;;;;5022676;28;20036;-74
2024/01/19 10:08:55;;;;;;;1.17;1.10;;;0.50;99.90;;;;;;5040679;28;20159;-74
2024/01/19 10:11:22;;;;;;;2.65;1.48;;;0.70;99.90;;;;;;5028738;28;20033;-73
2024/01/19 10:13:48;;;;;;;3.35;1.90;;;0.80;99.90;;;;;;5038667;28;20032;-72
2024/01/19 10:16:13;;;;;;;5.82;2.78;;;1.00;99.90;;;;;;5034092;28;20445;-73
2024/01/19 10:18:41;;;;;;;3.22;1.90;;;1.20;99.90;;;;;;5035526;28;20044;-72
2024/01/19 10:21:07;;;;;;;0.63;0.63;;;1.30;99.90;;;;;;5040099;28;20024;-73
2024/01/19 10:23:33;;;;;;;2.97;1.95;;;1.40;99.90;;;;;;5035348;28;20101;-73
2024/01/19 10:26:14;;;;;;;11.48;1.85;;;1.50;99.90;;;;;;5039729;28;20052;-72
2024/01/19 10:28:40;;;;;;;1.23;1.20;;;1.70;99.90;;;;;;5038818;28;20075;-72
2024/01/19 10:31:22;;;;;;;2.58;1.60;;;1.80;99.90;;;;;;5049527;28;20119;-75
2024/01/19 10:33:52;;;;;;;1.13;0.77;;;1.90;99.90;;;;;;5035077;28;20032;-74
2024/01/19 10:36:19;;;;;;;0.73;0.73;;;2.00;99.90;;;;;;5050222;28;20056;-75
2024/01/19 10:38:45;;;;;;;2.08;1.70;;;2.10;99.90;;;;;;5039821;28;20413;-75
2024/01/19 10:41:15;;;;;;;1.77;1.67;;;2.20;99.90;;;;;;5051704;28;20043;-74
2024/01/19 10:43:41;;;;;;;0.90;0.90;;;2.30;99.90;;;;;;5039972;28;20139;-74
2024/01/19 10:46:20;;;;;;;1.02;1.02;;;2.50;99.90;;;;;;5045869;28;20069;-74
2024/01/19 10:48:46;;;;;;;0.40;0.40;;;2.60;99.90;;;;;;5039855;28;20041;-76
2024/01/19 10:51:13;;;;;;;1.02;0.98;;;2.80;99.90;;;;;;5054597;28;20045;-78
2024/01/19 10:53:39;;;;;;;4.22;1.17;;;2.80;99.90;;;;;;5040061;28;20050;-74
2024/01/19 10:56:05;;;;;;;4.57;1.00;;;3.00;99.90;;;;;;5071848;28;20036;-77
2024/01/19 10:58:33;;;;;;;1.52;0.98;;;3.20;99.90;;;;;;5065764;28;20085;-76
2024/01/19 11:01:16;;;;;;;1.75;1.55;;;3.30;99.90;;;;;;5072241;28;20031;-73
2024/01/19 11:03:43;;;;;;;2.60;0.93;;;3.40;99.90;;;;;;5060909;28;20039;-74
2024/01/19 11:06:10;;;;;;;1.08;0.70;;;3.50;99.90;;;;;;5059581;28;20034;-77
2024/01/19 11:08:37;;;;;;;0.73;0.73;;;3.60;99.90;;;;;;5062713;28;20036;-74
2024/01/19 11:11:05;;;;;;;0.77;0.75;;;3.60;99.90;;;;;;5073959;28;20033;-76
2024/01/19 11:13:40;;;;;;;0.93;0.88;;;3.70;99.90;;;;;;5062195;28;20565;-78
2024/01/19 11:16:13;;;;;;;1.35;1.00;;;3.60;99.90;;;;;;5076877;28;20047;-75
2024/01/19 11:18:39;;;;;;;4.90;2.03;;;3.70;99.90;;;;;;5060978;28;20028;-74
2024/01/19 11:21:06;;;;;;;1.52;0.88;;;3.80;99.90;;;;;;5086224;28;20110;-74
2024/01/19 11:23:33;;;;;;;2.05;1.67;;;3.90;99.90;;;;;;5066921;28;20061;-76
2024/01/19 11:26:24;;;;;;;1.13;0.77;;;4.10;99.90;;;;;;5046088;28;20036;-75
2024/01/19 11:28:56;;;;;;;1.25;0.90;;;4.40;99.90;;;;;;5054978;28;20097;-74
2024/01/19 11:31:29;;;;;;;1.13;1.10;;;4.60;99.90;;;;;;5069890;28;20057;-75
2024/01/19 11:33:54;;;;;;;0.95;0.90;;;4.80;99.90;;;;;;5065820;28;20093;-74
2024/01/19 11:36:41;;;;;;;5.90;1.85;;;4.90;99.90;;;;;;5074298;28;20550;-74
2024/01/19 11:39:09;;;;;;;1.85;1.00;;;5.10;99.70;;;;;;5074170;28;20132;-74
2024/01/19 11:41:35;;;;;;;2.20;0.90;;;5.20;98.90;;;;;;5077854;28;20039;-72
2024/01/19 11:44:03;;;;;;;2.83;1.52;;;5.20;99.00;;;;;;5068134;28;20044;-72
2024/01/19 11:46:47;;;;;;;0.50;0.50;;;5.30;98.80;;;;;;5062142;28;20170;-71
2024/01/19 11:49:34;;;;;;;2.40;1.52;;;5.40;97.90;;;;;;5069032;28;20041;-70
2024/01/19 11:52:01;;;;;;;0.25;0.25;;;5.60;97.20;;;;;;5069272;28;20039;-75
2024/01/19 11:54:29;;;;;;;0.55;0.55;;;5.70;97.00;;;;;;5063437;28;20132;-71
2024/01/19 11:57:15;;;;;;;6.03;0.45;;;5.70;96.60;;;;;;5069783;28;20055;-72
2024/01/19 11:59:43;;;;;;;0.10;0.10;;;5.80;96.00;;;;;;5056721;28;20040;-70
2024/01/19 12:02:19;;;;;;;0.65;0.40;;;5.90;95.50;;;;;;5068166;28;20032;-71
2024/01/19 12:04:47;;;;;;;0.22;0.22;;;5.80;95.00;;;;;;5074593;28;20032;-71
2024/01/19 12:07:17;;;;;;;0.13;0.13;;;5.90;94.20;;;;;;5059568;28;20042;-70
2024/01/19 12:09:43;;;;;;;1.02;0.80;;;5.90;94.30;;;;;;5070613;28;20403;-71
2024/01/19 12:12:09;;;;;;;0.50;0.20;;;6.00;93.80;;;;;;5073841;28;20036;-72
2024/01/19 12:14:34;;;;;;;0.30;0.30;;;6.10;93.00;;;;;;5069562;28;20036;-72
2024/01/19 12:17:00;;;;;;;0.10;0.10;;;6.10;92.30;;;;;;5058999;28;20043;-72
2024/01/19 12:19:26;;;;;;;2.75;0.73;;;6.10;91.10;;;;;;5062154;28;20093;-72
2024/01/19 12:21:56;;;;;;;0.13;0.13;;;6.20;91.10;;;;;;5055863;28;20063;-72
2024/01/19 12:24:21;;;;;;;1.00;0.55;;;6.20;90.00;;;;;;5074969;28;20031;-72
2024/01/19 12:26:52;;;;;;;0.30;0.30;;;6.30;88.80;;;;;;5050832;28;20039;-70
2024/01/19 12:29:36;;;;;;;0.73;0.52;;;6.40;89.60;;;;;;5071687;28;20775;-71
2024/01/19 12:32:09;;;;;;;2.08;0.40;;;6.30;87.70;;;;;;5050530;28;20040;-72
2024/01/19 12:34:35;;;;;;;0.43;0.38;;;6.30;86.90;;;;;;5074827;28;20694;-72
2024/01/19 12:37:01;;;;;;;0.50;0.50;;;6.30;85.80;;;;;;5064418;28;20656;-71
2024/01/19 12:39:27;;;;;;;0.43;0.43;;;6.30;86.90;;;;;;5071925;28;20062;-73
2024/01/19 12:42:03;;;;;;;0.20;0.20;;;6.40;86.40;;;;;;5062004;28;20024;-75
2024/01/19 12:44:28;;;;;;;0.95;0.60;;;6.30;86.70;;;;;;5063901;28;20123;-75
2024/01/19 12:46:58;;;;;;;0.80;0.80;;;6.40;87.30;;;;;;5052927;28;20035;-72